Terminal Aerodrome Forecast
Issued by NWS

Home | Current Version | Previous Version | Text Only | Print | Product List | Glossary On
Versions: 1 2 3 4 5 6 7 8 9 10 11 12 13 14 15 16 17 18 19 20 21 22 23 24 25 26 27 28
000
FTUS43 KDTX 281734
TAFPTK
TAF
KPTK 281734Z 2818/2918 34010KT P6SM SCT045
      TEMPO 2819/2821 BKN045
     FM290200 VRB03KT P6SM SCT050
     FM291500 30006KT P6SM BKN050=

USA.gov is the U.S. government's official web portal to all federal, state and local government web resources and services.